sensor_id;sensor_type;location;lat;lon;timestamp;temperature;humidity
20712;DHT22;10517;50.742;4.224;2022-09-28T00:00:27;9.80;99.90
20712;DHT22;10517;50.742;4.224;2022-09-28T00:02:56;9.80;99.90
20712;DHT22;10517;50.742;4.224;2022-09-28T00:05:25;9.80;99.90
20712;DHT22;10517;50.742;4.224;2022-09-28T00:07:54;9.80;99.90
20712;DHT22;10517;50.742;4.224;2022-09-28T00:10:21;9.90;99.90
20712;DHT22;10517;50.742;4.224;2022-09-28T00:12:48;9.90;99.90
20712;DHT22;10517;50.742;4.224;2022-09-28T00:15:15;10.00;99.90
20712;DHT22;10517;50.742;4.224;2022-09-28T00:17:41;9.90;99.90
20712;DHT22;10517;50.742;4.224;2022-09-28T00:20:09;9.80;99.90
20712;DHT22;10517;50.742;4.224;2022-09-28T00:22:36;9.70;99.90
20712;DHT22;10517;50.742;4.224;2022-09-28T00:25:01;9.70;99.90
20712;DHT22;10517;50.742;4.224;2022-09-28T00:27:27;9.70;99.90
20712;DHT22;10517;50.742;4.224;2022-09-28T00:29:53;9.60;99.90
20712;DHT22;10517;50.742;4.224;2022-09-28T00:32:19;9.60;99.90
20712;DHT22;10517;50.742;4.224;2022-09-28T00:34:49;9.60;99.90
20712;DHT22;10517;50.742;4.224;2022-09-28T00:37:14;9.50;99.90
20712;DHT22;10517;50.742;4.224;2022-09-28T00:39:40;9.40;99.90
20712;DHT22;10517;50.742;4.224;2022-09-28T00:42:18;9.40;99.90
20712;DHT22;10517;50.742;4.224;2022-09-28T00:47:23;9.20;99.90
20712;DHT22;10517;50.742;4.224;2022-09-28T00:50:13;9.20;99.90
20712;DHT22;10517;50.742;4.224;2022-09-28T00:55:37;9.20;99.90
20712;DHT22;10517;50.742;4.224;2022-09-28T00:58:07;9.20;99.90
20712;DHT22;10517;50.742;4.224;2022-09-28T01:00:33;9.30;99.90
20712;DHT22;10517;50.742;4.224;2022-09-28T01:02:59;9.30;99.90
20712;DHT22;10517;50.742;4.224;2022-09-28T01:05:26;9.30;99.90
20712;DHT22;10517;50.742;4.224;2022-09-28T01:07:53;9.40;99.90
20712;DHT22;10517;50.742;4.224;2022-09-28T01:10:20;9.50;99.90
20712;DHT22;10517;50.742;4.224;2022-09-28T01:12:45;9.60;99.90
20712;DHT22;10517;50.742;4.224;2022-09-28T01:15:12;9.60;99.90
20712;DHT22;10517;50.742;4.224;2022-09-28T01:20:25;9.70;99.90
20712;DHT22;10517;50.742;4.224;2022-09-28T01:25:57;9.60;99.90
20712;DHT22;10517;50.742;4.224;2022-09-28T01:28:27;9.70;99.90
20712;DHT22;10517;50.742;4.224;2022-09-28T01:31:12;9.70;99.90
20712;DHT22;10517;50.742;4.224;2022-09-28T01:33:49;9.50;99.90
20712;DHT22;10517;50.742;4.224;2022-09-28T01:36:35;9.50;99.90
20712;DHT22;10517;50.742;4.224;2022-09-28T01:39:09;9.30;99.90
20712;DHT22;10517;50.742;4.224;2022-09-28T01:41:38;9.20;99.90
20712;DHT22;10517;50.742;4.224;2022-09-28T01:44:07;9.20;99.90
20712;DHT22;10517;50.742;4.224;2022-09-28T01:46:44;9.40;99.90
20712;DHT22;10517;50.742;4.224;2022-09-28T01:49:21;9.40;99.90
20712;DHT22;10517;50.742;4.224;2022-09-28T01:52:05;9.50;99.90
20712;DHT22;10517;50.742;4.224;2022-09-28T01:54:35;9.60;99.90
20712;DHT22;10517;50.742;4.224;2022-09-28T01:57:10;9.60;99.90
20712;DHT22;10517;50.742;4.224;2022-09-28T01:59:40;9.70;99.90
20712;DHT22;10517;50.742;4.224;2022-09-28T02:02:15;9.80;99.90
20712;DHT22;10517;50.742;4.224;2022-09-28T02:04:54;9.80;99.90
20712;DHT22;10517;50.742;4.224;2022-09-28T02:07:33;9.70;99.90
20712;DHT22;10517;50.742;4.224;2022-09-28T02:10:09;9.60;99.90
20712;DHT22;10517;50.742;4.224;2022-09-28T02:12:53;9.60;99.90
20712;DHT22;10517;50.742;4.224;2022-09-28T02:15:39;9.60;99.90
20712;DHT22;10517;50.742;4.224;2022-09-28T02:18:06;9.70;99.90
20712;DHT22;10517;50.742;4.224;2022-09-28T02:20:33;9.80;99.90
20712;DHT22;10517;50.742;4.224;2022-09-28T02:23:01;9.70;99.90
20712;DHT22;10517;50.742;4.224;2022-09-28T02:25:47;9.60;99.90
20712;DHT22;10517;50.742;4.224;2022-09-28T02:28:15;9.30;99.90
20712;DHT22;10517;50.742;4.224;2022-09-28T02:30:42;9.20;99.90
20712;DHT22;10517;50.742;4.224;2022-09-28T02:33:12;9.10;99.90
20712;DHT22;10517;50.742;4.224;2022-09-28T02:35:40;9.10;99.90
20712;DHT22;10517;50.742;4.224;2022-09-28T02:38:06;9.10;99.90
20712;DHT22;10517;50.742;4.224;2022-09-28T02:40:33;9.00;99.90
20712;DHT22;10517;50.742;4.224;2022-09-28T02:43:07;9.10;99.90
20712;DHT22;10517;50.742;4.224;2022-09-28T03:00:25;9.60;99.90
20712;DHT22;10517;50.742;4.224;2022-09-28T03:05:50;9.50;99.90
20712;DHT22;10517;50.742;4.224;2022-09-28T03:11:15;9.30;99.90
20712;DHT22;10517;50.742;4.224;2022-09-28T03:13:38;9.20;99.90
20712;DHT22;10517;50.742;4.224;2022-09-28T03:16:09;9.10;99.90
20712;DHT22;10517;50.742;4.224;2022-09-28T03:18:35;9.00;99.90
20712;DHT22;10517;50.742;4.224;2022-09-28T03:21:03;8.90;99.90
20712;DHT22;10517;50.742;4.224;2022-09-28T03:23:29;8.80;99.90
20712;DHT22;10517;50.742;4.224;2022-09-28T03:25:54;8.80;99.90
20712;DHT22;10517;50.742;4.224;2022-09-28T03:28:20;8.80;99.90
20712;DHT22;10517;50.742;4.224;2022-09-28T03:30:46;8.90;99.90
20712;DHT22;10517;50.742;4.224;2022-09-28T03:33:11;8.90;99.90
20712;DHT22;10517;50.742;4.224;2022-09-28T03:35:37;8.90;99.90
20712;DHT22;10517;50.742;4.224;2022-09-28T03:38:02;9.00;99.90
20712;DHT22;10517;50.742;4.224;2022-09-28T03:40:28;9.00;99.90
20712;DHT22;10517;50.742;4.224;2022-09-28T03:42:54;9.00;99.90
20712;DHT22;10517;50.742;4.224;2022-09-28T03:45:19;9.00;99.90
20712;DHT22;10517;50.742;4.224;2022-09-28T03:47:45;9.00;99.90
20712;DHT22;10517;50.742;4.224;2022-09-28T03:50:12;9.00;99.90
20712;DHT22;10517;50.742;4.224;2022-09-28T03:52:37;9.00;99.90
20712;DHT22;10517;50.742;4.224;2022-09-28T03:55:03;9.20;99.90
20712;DHT22;10517;50.742;4.224;2022-09-28T03:57:29;9.00;99.90
20712;DHT22;10517;50.742;4.224;2022-09-28T03:59:54;8.80;99.90
20712;DHT22;10517;50.742;4.224;2022-09-28T04:02:20;8.60;99.90
20712;DHT22;10517;50.742;4.224;2022-09-28T04:04:45;8.50;99.90
20712;DHT22;10517;50.742;4.224;2022-09-28T04:07:11;8.40;99.90
20712;DHT22;10517;50.742;4.224;2022-09-28T04:09:36;8.30;99.90
20712;DHT22;10517;50.742;4.224;2022-09-28T04:12:02;8.20;99.90
20712;DHT22;10517;50.742;4.224;2022-09-28T04:14:27;8.20;99.90
20712;DHT22;10517;50.742;4.224;2022-09-28T04:16:53;8.20;99.90
20712;DHT22;10517;50.742;4.224;2022-09-28T04:19:20;8.00;99.90
20712;DHT22;10517;50.742;4.224;2022-09-28T04:21:47;8.00;99.90
20712;DHT22;10517;50.742;4.224;2022-09-28T04:24:12;8.00;99.90
20712;DHT22;10517;50.742;4.224;2022-09-28T04:26:38;8.00;99.90
20712;DHT22;10517;50.742;4.224;2022-09-28T04:29:04;7.90;99.90
20712;DHT22;10517;50.742;4.224;2022-09-28T04:31:43;7.90;99.90
20712;DHT22;10517;50.742;4.224;2022-09-28T04:34:10;7.80;99.90
20712;DHT22;10517;50.742;4.224;2022-09-28T04:36:36;7.80;99.90
20712;DHT22;10517;50.742;4.224;2022-09-28T04:39:02;7.80;99.90
20712;DHT22;10517;50.742;4.224;2022-09-28T04:41:28;7.70;99.90
20712;DHT22;10517;50.742;4.224;2022-09-28T04:43:53;7.70;99.90
20712;DHT22;10517;50.742;4.224;2022-09-28T04:46:19;7.60;99.90
20712;DHT22;10517;50.742;4.224;2022-09-28T04:48:45;7.60;99.90
20712;DHT22;10517;50.742;4.224;2022-09-28T04:51:10;7.60;99.90
20712;DHT22;10517;50.742;4.224;2022-09-28T04:53:36;7.60;99.90
20712;DHT22;10517;50.742;4.224;2022-09-28T04:56:10;7.50;99.90
20712;DHT22;10517;50.742;4.224;2022-09-28T04:58:35;7.50;99.90
20712;DHT22;10517;50.742;4.224;2022-09-28T05:01:04;7.40;99.90
20712;DHT22;10517;50.742;4.224;2022-09-28T05:03:31;7.40;99.90
20712;DHT22;10517;50.742;4.224;2022-09-28T05:05:57;7.40;99.90
20712;DHT22;10517;50.742;4.224;2022-09-28T05:08:23;7.40;99.90
20712;DHT22;10517;50.742;4.224;2022-09-28T05:10:56;7.50;99.90
20712;DHT22;10517;50.742;4.224;2022-09-28T05:13:23;7.50;99.90
20712;DHT22;10517;50.742;4.224;2022-09-28T05:15:52;7.50;99.90
20712;DHT22;10517;50.742;4.224;2022-09-28T05:18:17;7.50;99.90
20712;DHT22;10517;50.742;4.224;2022-09-28T05:20:43;7.50;99.90
20712;DHT22;10517;50.742;4.224;2022-09-28T05:23:09;7.50;99.90
20712;DHT22;10517;50.742;4.224;2022-09-28T05:25:35;7.50;99.90
20712;DHT22;10517;50.742;4.224;2022-09-28T05:28:01;7.40;99.90
20712;DHT22;10517;50.742;4.224;2022-09-28T05:30:27;7.40;99.90
20712;DHT22;10517;50.742;4.224;2022-09-28T05:32:53;7.40;99.90
20712;DHT22;10517;50.742;4.224;2022-09-28T05:35:19;7.40;99.90
20712;DHT22;10517;50.742;4.224;2022-09-28T05:37:45;7.50;99.90
20712;DHT22;10517;50.742;4.224;2022-09-28T05:40:11;7.50;99.90
20712;DHT22;10517;50.742;4.224;2022-09-28T05:42:37;7.50;99.90
20712;DHT22;10517;50.742;4.224;2022-09-28T05:45:02;7.50;99.90
20712;DHT22;10517;50.742;4.224;2022-09-28T05:47:28;7.50;99.90
20712;DHT22;10517;50.742;4.224;2022-09-28T05:49:54;7.50;99.90
20712;DHT22;10517;50.742;4.224;2022-09-28T05:52:20;7.50;99.90
20712;DHT22;10517;50.742;4.224;2022-09-28T05:54:46;7.60;99.90
20712;DHT22;10517;50.742;4.224;2022-09-28T05:57:12;7.50;99.90
20712;DHT22;10517;50.742;4.224;2022-09-28T05:59:37;7.60;99.90
20712;DHT22;10517;50.742;4.224;2022-09-28T06:02:04;7.60;99.90
20712;DHT22;10517;50.742;4.224;2022-09-28T06:04:30;7.50;99.90
20712;DHT22;10517;50.742;4.224;2022-09-28T06:06:57;7.60;99.90
20712;DHT22;10517;50.742;4.224;2022-09-28T06:09:22;7.60;99.90
20712;DHT22;10517;50.742;4.224;2022-09-28T06:11:49;7.60;99.90
20712;DHT22;10517;50.742;4.224;2022-09-28T06:14:15;7.60;99.90
20712;DHT22;10517;50.742;4.224;2022-09-28T06:16:41;7.60;99.90
20712;DHT22;10517;50.742;4.224;2022-09-28T06:19:07;7.60;99.90
20712;DHT22;10517;50.742;4.224;2022-09-28T06:21:33;7.70;99.90
20712;DHT22;10517;50.742;4.224;2022-09-28T06:23:59;7.70;99.90
20712;DHT22;10517;50.742;4.224;2022-09-28T06:26:25;7.80;99.90
20712;DHT22;10517;50.742;4.224;2022-09-28T06:28:50;7.80;99.90
20712;DHT22;10517;50.742;4.224;2022-09-28T06:31:16;7.80;99.90
20712;DHT22;10517;50.742;4.224;2022-09-28T06:33:42;7.80;99.90
20712;DHT22;10517;50.742;4.224;2022-09-28T06:36:08;7.90;99.90
20712;DHT22;10517;50.742;4.224;2022-09-28T06:38:34;8.00;99.90
20712;DHT22;10517;50.742;4.224;2022-09-28T06:41:00;8.20;99.90
20712;DHT22;10517;50.742;4.224;2022-09-28T06:43:25;8.20;99.90
20712;DHT22;10517;50.742;4.224;2022-09-28T06:45:52;8.30;99.90
20712;DHT22;10517;50.742;4.224;2022-09-28T06:48:18;8.30;99.90
20712;DHT22;10517;50.742;4.224;2022-09-28T06:50:44;8.40;99.90
20712;DHT22;10517;50.742;4.224;2022-09-28T06:53:12;8.40;99.90
20712;DHT22;10517;50.742;4.224;2022-09-28T06:55:42;8.40;99.90
20712;DHT22;10517;50.742;4.224;2022-09-28T06:58:10;8.40;99.90
20712;DHT22;10517;50.742;4.224;2022-09-28T07:00:36;8.40;99.90
20712;DHT22;10517;50.742;4.224;2022-09-28T07:03:07;8.40;99.90
20712;DHT22;10517;50.742;4.224;2022-09-28T07:05:35;8.50;99.90
20712;DHT22;10517;50.742;4.224;2022-09-28T07:08:02;8.50;99.90
20712;DHT22;10517;50.742;4.224;2022-09-28T07:10:29;8.60;99.90
20712;DHT22;10517;50.742;4.224;2022-09-28T07:12:56;8.70;99.90
20712;DHT22;10517;50.742;4.224;2022-09-28T07:15:23;8.80;99.90
20712;DHT22;10517;50.742;4.224;2022-09-28T07:17:49;8.80;99.90
20712;DHT22;10517;50.742;4.224;2022-09-28T07:20:21;8.90;99.90
20712;DHT22;10517;50.742;4.224;2022-09-28T07:22:54;9.00;99.90
20712;DHT22;10517;50.742;4.224;2022-09-28T07:25:21;9.20;99.90
20712;DHT22;10517;50.742;4.224;2022-09-28T07:27:48;9.40;99.90
20712;DHT22;10517;50.742;4.224;2022-09-28T07:30:14;9.50;99.90
20712;DHT22;10517;50.742;4.224;2022-09-28T07:32:40;9.60;99.90
20712;DHT22;10517;50.742;4.224;2022-09-28T07:35:06;9.60;99.90
20712;DHT22;10517;50.742;4.224;2022-09-28T07:37:35;9.60;99.90
20712;DHT22;10517;50.742;4.224;2022-09-28T07:40:03;9.80;99.90
20712;DHT22;10517;50.742;4.224;2022-09-28T07:42:47;9.90;99.90
20712;DHT22;10517;50.742;4.224;2022-09-28T07:45:13;10.00;99.90
20712;DHT22;10517;50.742;4.224;2022-09-28T07:47:39;10.00;99.90
20712;DHT22;10517;50.742;4.224;2022-09-28T07:50:04;10.00;99.90
20712;DHT22;10517;50.742;4.224;2022-09-28T07:52:30;10.00;99.90
20712;DHT22;10517;50.742;4.224;2022-09-28T07:54:56;10.00;99.90
20712;DHT22;10517;50.742;4.224;2022-09-28T07:57:22;10.00;99.90
20712;DHT22;10517;50.742;4.224;2022-09-28T07:59:49;10.00;99.90
20712;DHT22;10517;50.742;4.224;2022-09-28T08:02:15;10.00;99.90
20712;DHT22;10517;50.742;4.224;2022-09-28T08:04:48;10.10;99.90
20712;DHT22;10517;50.742;4.224;2022-09-28T08:07:15;10.20;99.90
20712;DHT22;10517;50.742;4.224;2022-09-28T08:09:41;10.20;99.90
20712;DHT22;10517;50.742;4.224;2022-09-28T08:12:08;10.30;99.90
20712;DHT22;10517;50.742;4.224;2022-09-28T08:14:34;10.30;99.90
20712;DHT22;10517;50.742;4.224;2022-09-28T08:17:00;10.40;99.90
20712;DHT22;10517;50.742;4.224;2022-09-28T08:19:26;10.40;99.90
20712;DHT22;10517;50.742;4.224;2022-09-28T08:22:12;10.50;99.90
20712;DHT22;10517;50.742;4.224;2022-09-28T08:24:38;10.50;99.90
20712;DHT22;10517;50.742;4.224;2022-09-28T08:27:03;10.70;99.90
20712;DHT22;10517;50.742;4.224;2022-09-28T08:29:29;10.80;99.90
20712;DHT22;10517;50.742;4.224;2022-09-28T08:31:56;11.00;99.90
20712;DHT22;10517;50.742;4.224;2022-09-28T08:34:23;11.00;99.90
20712;DHT22;10517;50.742;4.224;2022-09-28T08:36:49;11.00;99.90
20712;DHT22;10517;50.742;4.224;2022-09-28T08:39:14;11.00;99.90
20712;DHT22;10517;50.742;4.224;2022-09-28T08:44:23;11.00;99.90
20712;DHT22;10517;50.742;4.224;2022-09-28T08:47:05;11.00;99.90
20712;DHT22;10517;50.742;4.224;2022-09-28T08:49:55;11.30;99.90
20712;DHT22;10517;50.742;4.224;2022-09-28T08:52:29;11.40;99.90
20712;DHT22;10517;50.742;4.224;2022-09-28T08:57:51;11.60;99.90
20712;DHT22;10517;50.742;4.224;2022-09-28T09:00:24;11.70;99.90
20712;DHT22;10517;50.742;4.224;2022-09-28T09:02:54;11.80;99.90
20712;DHT22;10517;50.742;4.224;2022-09-28T09:05:26;12.20;99.90
20712;DHT22;10517;50.742;4.224;2022-09-28T09:08:57;12.40;99.90
20712;DHT22;10517;50.742;4.224;2022-09-28T09:11:51;12.30;99.90
20712;DHT22;10517;50.742;4.224;2022-09-28T09:17:04;12.00;99.90
20712;DHT22;10517;50.742;4.224;2022-09-28T09:22:38;11.90;99.90
20712;DHT22;10517;50.742;4.224;2022-09-28T09:30:12;12.10;99.90
20712;DHT22;10517;50.742;4.224;2022-09-28T09:38:42;13.40;99.90
20712;DHT22;10517;50.742;4.224;2022-09-28T09:46:52;12.60;99.90
20712;DHT22;10517;50.742;4.224;2022-09-28T09:49:24;12.50;99.90
20712;DHT22;10517;50.742;4.224;2022-09-28T09:52:04;12.40;99.90
20712;DHT22;10517;50.742;4.224;2022-09-28T09:59:44;12.90;99.90
20712;DHT22;10517;50.742;4.224;2022-09-28T10:05:04;12.80;99.90
20712;DHT22;10517;50.742;4.224;2022-09-28T10:12:54;12.50;99.90
20712;DHT22;10517;50.742;4.224;2022-09-28T10:15:26;12.40;99.90
20712;DHT22;10517;50.742;4.224;2022-09-28T10:17:54;12.40;99.90
20712;DHT22;10517;50.742;4.224;2022-09-28T10:20:20;12.20;99.90
20712;DHT22;10517;50.742;4.224;2022-09-28T10:22:48;12.40;99.90
20712;DHT22;10517;50.742;4.224;2022-09-28T10:25:16;12.70;99.90
20712;DHT22;10517;50.742;4.224;2022-09-28T10:27:44;12.90;99.90
20712;DHT22;10517;50.742;4.224;2022-09-28T10:32:44;12.90;99.90
20712;DHT22;10517;50.742;4.224;2022-09-28T10:35:26;12.80;99.90
20712;DHT22;10517;50.742;4.224;2022-09-28T10:37:59;12.70;99.90
20712;DHT22;10517;50.742;4.224;2022-09-28T10:45:47;13.10;99.90
20712;DHT22;10517;50.742;4.224;2022-09-28T10:48:18;13.30;99.90
20712;DHT22;10517;50.742;4.224;2022-09-28T10:50:57;13.20;99.90
20712;DHT22;10517;50.742;4.224;2022-09-28T10:53:23;13.00;99.90
20712;DHT22;10517;50.742;4.224;2022-09-28T10:55:58;13.00;99.90
20712;DHT22;10517;50.742;4.224;2022-09-28T10:58:38;13.00;99.90
20712;DHT22;10517;50.742;4.224;2022-09-28T11:01:20;12.90;99.90
20712;DHT22;10517;50.742;4.224;2022-09-28T11:04:00;12.80;99.90
20712;DHT22;10517;50.742;4.224;2022-09-28T11:06:32;12.90;99.90
20712;DHT22;10517;50.742;4.224;2022-09-28T11:09:03;12.90;99.90
20712;DHT22;10517;50.742;4.224;2022-09-28T11:11:29;13.10;99.90
20712;DHT22;10517;50.742;4.224;2022-09-28T11:13:59;13.10;99.90
20712;DHT22;10517;50.742;4.224;2022-09-28T11:16:33;13.20;99.90
20712;DHT22;10517;50.742;4.224;2022-09-28T11:19:05;13.30;99.90
20712;DHT22;10517;50.742;4.224;2022-09-28T11:21:48;13.50;99.90
20712;DHT22;10517;50.742;4.224;2022-09-28T11:26:49;13.50;99.90
20712;DHT22;10517;50.742;4.224;2022-09-28T11:32:00;13.60;99.90
20712;DHT22;10517;50.742;4.224;2022-09-28T11:34:36;13.50;99.90
20712;DHT22;10517;50.742;4.224;2022-09-28T11:42:20;13.80;99.90
20712;DHT22;10517;50.742;4.224;2022-09-28T11:44:47;14.20;99.90
20712;DHT22;10517;50.742;4.224;2022-09-28T11:48:01;14.90;99.90
20712;DHT22;10517;50.742;4.224;2022-09-28T11:50:13;15.40;99.90
20712;DHT22;10517;50.742;4.224;2022-09-28T11:55:39;14.80;99.90
20712;DHT22;10517;50.742;4.224;2022-09-28T12:00:45;14.40;99.90
20712;DHT22;10517;50.742;4.224;2022-09-28T12:05:55;14.90;99.90
20712;DHT22;10517;50.742;4.224;2022-09-28T12:08:27;15.00;99.90
20712;DHT22;10517;50.742;4.224;2022-09-28T12:10:58;14.80;99.90
20712;DHT22;10517;50.742;4.224;2022-09-28T12:13:34;14.60;99.90
20712;DHT22;10517;50.742;4.224;2022-09-28T12:16:05;14.30;99.90
20712;DHT22;10517;50.742;4.224;2022-09-28T12:21:38;13.90;99.90
20712;DHT22;10517;50.742;4.224;2022-09-28T12:24:29;13.80;99.90
20712;DHT22;10517;50.742;4.224;2022-09-28T12:27:04;13.80;99.90
20712;DHT22;10517;50.742;4.224;2022-09-28T12:29:42;14.00;99.90
20712;DHT22;10517;50.742;4.224;2022-09-28T12:32:30;14.30;99.90
20712;DHT22;10517;50.742;4.224;2022-09-28T12:35:00;14.70;99.90
20712;DHT22;10517;50.742;4.224;2022-09-28T12:37:41;14.90;99.90
20712;DHT22;10517;50.742;4.224;2022-09-28T12:45:48;14.00;99.90
20712;DHT22;10517;50.742;4.224;2022-09-28T12:51:51;13.60;99.90
20712;DHT22;10517;50.742;4.224;2022-09-28T13:00:04;14.30;99.90
20712;DHT22;10517;50.742;4.224;2022-09-28T13:07:59;16.60;99.90
20712;DHT22;10517;50.742;4.224;2022-09-28T13:13:48;19.70;99.90
20712;DHT22;10517;50.742;4.224;2022-09-28T13:19:10;22.50;99.90
20712;DHT22;10517;50.742;4.224;2022-09-28T13:21:54;23.20;99.90
20712;DHT22;10517;50.742;4.224;2022-09-28T13:24:26;23.80;99.90
20712;DHT22;10517;50.742;4.224;2022-09-28T13:26:55;23.10;99.90
20712;DHT22;10517;50.742;4.224;2022-09-28T13:29:23;24.30;99.90
20712;DHT22;10517;50.742;4.224;2022-09-28T13:31:52;25.60;99.90
20712;DHT22;10517;50.742;4.224;2022-09-28T13:34:22;25.20;99.90
20712;DHT22;10517;50.742;4.224;2022-09-28T13:37:09;25.10;99.90
20712;DHT22;10517;50.742;4.224;2022-09-28T13:39:56;26.40;99.90
20712;DHT22;10517;50.742;4.224;2022-09-28T13:47:30;19.90;99.90
20712;DHT22;10517;50.742;4.224;2022-09-28T14:01:36;16.50;99.90
20712;DHT22;10517;50.742;4.224;2022-09-28T14:04:24;16.10;99.90
20712;DHT22;10517;50.742;4.224;2022-09-28T14:12:48;14.70;99.90
20712;DHT22;10517;50.742;4.224;2022-09-28T14:15:41;14.40;99.90
20712;DHT22;10517;50.742;4.224;2022-09-28T14:29:24;16.50;99.90
20712;DHT22;10517;50.742;4.224;2022-09-28T14:31:57;16.90;99.90
20712;DHT22;10517;50.742;4.224;2022-09-28T14:34:43;16.70;99.90
20712;DHT22;10517;50.742;4.224;2022-09-28T14:37:39;16.80;99.90
20712;DHT22;10517;50.742;4.224;2022-09-28T14:40:31;16.70;99.90
20712;DHT22;10517;50.742;4.224;2022-09-28T15:04:38;18.10;99.90
20712;DHT22;10517;50.742;4.224;2022-09-28T15:07:24;18.80;99.90
20712;DHT22;10517;50.742;4.224;2022-09-28T15:09:53;18.70;99.90
20712;DHT22;10517;50.742;4.224;2022-09-28T15:12:29;18.00;99.90
20712;DHT22;10517;50.742;4.224;2022-09-28T15:15:01;17.40;99.90
20712;DHT22;10517;50.742;4.224;2022-09-28T15:17:30;18.50;99.90
20712;DHT22;10517;50.742;4.224;2022-09-28T15:20:23;19.00;99.90
20712;DHT22;10517;50.742;4.224;2022-09-28T15:22:52;18.10;99.90
20712;DHT22;10517;50.742;4.224;2022-09-28T15:25:22;17.20;99.90
20712;DHT22;10517;50.742;4.224;2022-09-28T15:27:55;16.60;99.90
20712;DHT22;10517;50.742;4.224;2022-09-28T15:30:32;16.30;99.90
20712;DHT22;10517;50.742;4.224;2022-09-28T15:33:00;16.20;99.90
20712;DHT22;10517;50.742;4.224;2022-09-28T15:36:02;15.90;99.90
20712;DHT22;10517;50.742;4.224;2022-09-28T15:38:29;15.70;99.90
20712;DHT22;10517;50.742;4.224;2022-09-28T15:40:59;15.50;99.90
20712;DHT22;10517;50.742;4.224;2022-09-28T15:43:30;15.60;99.90
20712;DHT22;10517;50.742;4.224;2022-09-28T15:46:18;16.10;99.90
20712;DHT22;10517;50.742;4.224;2022-09-28T15:48:49;15.90;99.90
20712;DHT22;10517;50.742;4.224;2022-09-28T15:51:21;15.40;99.90
20712;DHT22;10517;50.742;4.224;2022-09-28T15:56:20;14.90;99.90
20712;DHT22;10517;50.742;4.224;2022-09-28T15:59:07;14.70;99.90
20712;DHT22;10517;50.742;4.224;2022-09-28T16:01:41;14.70;99.90
20712;DHT22;10517;50.742;4.224;2022-09-28T16:04:39;14.70;99.90
20712;DHT22;10517;50.742;4.224;2022-09-28T16:09:59;15.00;99.90
20712;DHT22;10517;50.742;4.224;2022-09-28T16:12:39;15.20;99.90
20712;DHT22;10517;50.742;4.224;2022-09-28T16:15:40;15.30;99.90
20712;DHT22;10517;50.742;4.224;2022-09-28T16:18:18;15.30;99.90
20712;DHT22;10517;50.742;4.224;2022-09-28T16:20:57;15.30;99.90
20712;DHT22;10517;50.742;4.224;2022-09-28T16:23:40;15.40;99.90
20712;DHT22;10517;50.742;4.224;2022-09-28T16:26:12;15.40;99.90
20712;DHT22;10517;50.742;4.224;2022-09-28T16:33:42;15.20;99.90
20712;DHT22;10517;50.742;4.224;2022-09-28T16:36:14;15.20;99.90
20712;DHT22;10517;50.742;4.224;2022-09-28T16:38:45;15.10;99.90
20712;DHT22;10517;50.742;4.224;2022-09-28T16:41:12;15.10;99.90
20712;DHT22;10517;50.742;4.224;2022-09-28T16:43:39;15.10;99.90
20712;DHT22;10517;50.742;4.224;2022-09-28T16:46:11;15.20;99.90
20712;DHT22;10517;50.742;4.224;2022-09-28T16:48:43;15.30;99.90
20712;DHT22;10517;50.742;4.224;2022-09-28T16:51:20;15.30;99.90
20712;DHT22;10517;50.742;4.224;2022-09-28T16:53:47;15.30;99.90
20712;DHT22;10517;50.742;4.224;2022-09-28T16:56:33;15.20;99.90
20712;DHT22;10517;50.742;4.224;2022-09-28T16:58:59;15.30;99.90
20712;DHT22;10517;50.742;4.224;2022-09-28T17:01:26;15.00;99.90
20712;DHT22;10517;50.742;4.224;2022-09-28T17:03:53;14.90;99.90
20712;DHT22;10517;50.742;4.224;2022-09-28T17:06:21;14.60;99.90
20712;DHT22;10517;50.742;4.224;2022-09-28T17:08:49;14.40;99.90
20712;DHT22;10517;50.742;4.224;2022-09-28T17:11:17;14.20;99.90
20712;DHT22;10517;50.742;4.224;2022-09-28T17:13:44;14.10;99.90
20712;DHT22;10517;50.742;4.224;2022-09-28T17:16:19;14.00;99.90
20712;DHT22;10517;50.742;4.224;2022-09-28T17:18:45;14.00;99.90
20712;DHT22;10517;50.742;4.224;2022-09-28T17:21:16;13.80;99.90
20712;DHT22;10517;50.742;4.224;2022-09-28T17:23:46;13.70;99.90
20712;DHT22;10517;50.742;4.224;2022-09-28T17:26:27;13.60;99.90
20712;DHT22;10517;50.742;4.224;2022-09-28T17:28:56;13.40;99.90
20712;DHT22;10517;50.742;4.224;2022-09-28T17:31:27;13.30;99.90
20712;DHT22;10517;50.742;4.224;2022-09-28T17:33:53;13.20;99.90
20712;DHT22;10517;50.742;4.224;2022-09-28T17:36:22;13.00;99.90
20712;DHT22;10517;50.742;4.224;2022-09-28T17:38:49;12.80;99.90
20712;DHT22;10517;50.742;4.224;2022-09-28T17:41:18;12.70;99.90
20712;DHT22;10517;50.742;4.224;2022-09-28T17:43:44;12.50;99.90
20712;DHT22;10517;50.742;4.224;2022-09-28T17:46:31;12.30;99.90
20712;DHT22;10517;50.742;4.224;2022-09-28T17:48:59;12.10;99.90
20712;DHT22;10517;50.742;4.224;2022-09-28T17:51:29;12.00;99.90
20712;DHT22;10517;50.742;4.224;2022-09-28T17:53:57;11.80;99.90
20712;DHT22;10517;50.742;4.224;2022-09-28T17:56:23;11.60;99.90
20712;DHT22;10517;50.742;4.224;2022-09-28T17:58:49;11.60;99.90
20712;DHT22;10517;50.742;4.224;2022-09-28T18:01:15;11.50;99.90
20712;DHT22;10517;50.742;4.224;2022-09-28T18:03:40;11.30;99.90
20712;DHT22;10517;50.742;4.224;2022-09-28T18:06:10;11.30;99.90
20712;DHT22;10517;50.742;4.224;2022-09-28T18:08:38;11.20;99.90
20712;DHT22;10517;50.742;4.224;2022-09-28T18:11:04;11.00;99.90
20712;DHT22;10517;50.742;4.224;2022-09-28T18:13:29;10.90;99.90
20712;DHT22;10517;50.742;4.224;2022-09-28T18:15:55;10.80;99.90
20712;DHT22;10517;50.742;4.224;2022-09-28T18:18:22;10.70;99.90
20712;DHT22;10517;50.742;4.224;2022-09-28T18:20:48;10.60;99.90
20712;DHT22;10517;50.742;4.224;2022-09-28T18:23:14;10.50;99.90
20712;DHT22;10517;50.742;4.224;2022-09-28T18:25:40;10.50;99.90
20712;DHT22;10517;50.742;4.224;2022-09-28T18:28:06;10.40;99.90
20712;DHT22;10517;50.742;4.224;2022-09-28T18:30:31;10.50;99.90
20712;DHT22;10517;50.742;4.224;2022-09-28T18:32:57;10.30;99.90
20712;DHT22;10517;50.742;4.224;2022-09-28T18:35:22;10.30;99.90
20712;DHT22;10517;50.742;4.224;2022-09-28T18:37:48;10.30;99.90
20712;DHT22;10517;50.742;4.224;2022-09-28T18:40:14;10.20;99.90
20712;DHT22;10517;50.742;4.224;2022-09-28T18:42:41;10.20;99.90
20712;DHT22;10517;50.742;4.224;2022-09-28T18:45:08;10.10;99.90
20712;DHT22;10517;50.742;4.224;2022-09-28T18:47:35;10.10;99.90
20712;DHT22;10517;50.742;4.224;2022-09-28T18:50:02;10.00;99.90
20712;DHT22;10517;50.742;4.224;2022-09-28T18:52:28;10.00;99.90
20712;DHT22;10517;50.742;4.224;2022-09-28T18:54:53;10.00;99.90
20712;DHT22;10517;50.742;4.224;2022-09-28T18:57:19;9.90;99.90
20712;DHT22;10517;50.742;4.224;2022-09-28T18:59:45;9.80;99.90
20712;DHT22;10517;50.742;4.224;2022-09-28T19:02:11;9.70;99.90
20712;DHT22;10517;50.742;4.224;2022-09-28T19:04:37;9.60;99.90
20712;DHT22;10517;50.742;4.224;2022-09-28T19:07:04;9.60;99.90
20712;DHT22;10517;50.742;4.224;2022-09-28T19:09:30;9.60;99.90
20712;DHT22;10517;50.742;4.224;2022-09-28T19:11:55;9.50;99.90